Change Date:Time:

Metar of : 5/25/2018 1600UTC
Metar
OPBKR 00000KT 6000 NSC 36/16 30%
OPBR 00000KT 6000 NSC 35/10 22%
OPBW 00000KT 4000 HZ NSC 33/20 Q1001 48%
OPBW(CITY) 00000KT 3000 HZ NSC 33/17 39%
OPCK 00000KT 9999 NSC 30/13 36%
OPDBN 251600Z 31506KT 6000 FEW040 31/06 Q1011 RH21%
OPDG 13006KT 6000 SCT100 34/14 Q1000 31%
OPDU 251600Z 00000KT 6000 HZ NSC 35/14 RH29%
OPFA 00000KT 5000 HZ NSC 34/13 Q1002 NOSIG RH 27% HOURLY RAIN NIL
OPGD 251600Z 23004KT 6000 NSC 30/29 Q1007 RH77%
OPGP 31004KT 8000 NSC 26/15 50%
OPGW 31004KT CAVOK 33/11 26%
OPHQ 00000KT CAVOK 29/10 Q1002 RH 31%
OPIS 251600Z 33008KT 7000 FEW040 32/03 Q1005 RH16%
OPJBD 00000kt 5000 HZ NSC 33/20 48%
OPJG 00000KT CAVOK 32/15 Q1001 36%
OPJM 00000KT 8000 NSC 33/14 32%
OPKAD 00000KT 8000 NSC 33/19 42%
OPKC 251600Z 27012KT 5000 HZ NSC 32/22 Q1003 RH55%
OPKE 251600Z 00000KT 6000 SKC 35/15 Q1001 RH31%
OPKL 00000KT 6000 NSC 32/10 26%
OPKP 00000KT 4000 HZ NSC 35/18 37%
OPKRL 00000KT 4000 HZ NSC 36/13 25%
OPKS 31002KT 4000 HZ NSC 37/08 17%
OPLA 29004KT 5000 HZ NSC 36/14 Q1002 A29.59 NOSIG RH 27%
OPLA( CIYY) 27004KT 4000 HZ NSC 37/13 Q1000 24%
OPLRK 251600Z 13502KT 6000 NSC 42/27 Q1002 RH46%
OPMA 00000KT 7000 NSC 35/06 Q1004 16%
OPMB 00000KT 6000 NSC 33/16 Q1002 37%
OPME 00000KT 8000 NSC 20/06 41%
OPMF 00000KT 8000 NSC 28/08 30%
OPMIT 251600Z 00000KT 6000 NSC 37/19 Q1000 RH34%
OPMJ 251600Z 13004KT 6000 NSC 34/15 Q1001 RH32% NOSIG
OPMT 00000KT 4000 HZ SCT120 37/10 Q1001 NOSIG RH 19%
OPNH 251600Z 09004KT 4000 HZ NSC 35/18 Q1001 RH37% NOSIG
OPNPT 00000KT 7000 NSC 38/13 22%
OPOK 00000KT 6000 NSC 35/18 Q1001 37%
OPPDN 251600Z 00000KT 5000 NSC 36/16 Q1002 RH30%
OPPG 251600Z 36006KT 6000 SKC 33/11 Q1010 RH26%
OPRK 00000KT 4000 DU NSC 35/11 Q1002 24%
OPRN 31008KT CAVOK 31/09 Q1006 NOSIG RMK A2971 RH25%
OPRRI 251600Z 00000KT 8000 NSC 38/08 P1P 9916
OPRT 00000KT 6000 NSC 15/08 Q1019 62%
OPSG 00000KT 7000 NSC 35/17 35%
OPSK 251600Z 00000KT 4000 HZ NSC 35/20 Q1000 NOSIG
OPSKT 00000KT 6000 NSC 35/08 19%
OPST 27006KT 4000 HZ NSC 32/05 Q1002 NOSIG RH19%
OPSW 00000KT 4000 HZ NSC 33/17 Q1000 37%
OPTJM 251600Z 00000KT 6000 SKC 34/19 Q1003 RH41%
OPTS 00000KT 4000 HZ NSC 33/19 45%
OPUG 00000KT 5000 HZ NSC 32/11 28%
CodeW.DirSpeedVisibilityCloud ConditionTempPressureHumidityStation
OPBR00000KT6000mClear35oC22%Bahawalnagar
OPBW00000KT4000mHaze33oC1001hp48%Bahawalpur
OPBKR00000KT6000mClear36oC30%Bhakkar
OPRN31008KTClear31oC1006hp25%CHAKLALA- RAWALPINDI
OPCK00000KT9999mClear30oC36%Chakwal
OPKE00000KT6000mClear35oC1001hp31%Chhor
OPDG13006KT6000mPartly Cloudy34oC1000hp31%D-G-KHAN
OPFA00000KT5000mHaze34oC1002hp27%Faisalabad
OPGP31004KT8000mClear26oC50%GARHI DOPATTA
OPGD23004KT6000mClear30oC1007hp77%Gawadar
OPGW31004KTClear33oC26%Gujranwala
OPUG00000KT5000mHaze32oC28%Gujrat
OPHQ00000KTClear29oC1002hp31%Islamabad
OPIS33008KT7000mPartly Cloudy32oC1005hp16%Islamabad Airport
OPJG00000KTClear32oC1001hp36%Jhang
OPJM00000KT8000mClear33oC32%Jhelum
OPJBD00000KT5000mHaze33oC48%Joharabad
OPKC27012KT5000mHaze32oC1003hp55%KARACHI A/P
OPKRL00000KT4000mHaze36oC25%KAROR (LAYYAH)
OPKS31002KT4000mHaze37oC17%Kasur
OPKP00000KT4000mHaze35oC37%Khanpur
OPKAD00000KT8000mClear33oC42%KOT ADDU
OPKL00000KT6000mClear32oC26%Kotli
OPLA29004KT5000mHaze36oC1002hp27%LAHORE A/P
OPMB00000KT6000mClear33oC1002hp37%MANDI BAHUDDIN
OPMA00000KT7000mClear35oC1004hp16%Mangla
OPMJ13004KT6000mClear34oC1001hp32%MOHENJO DARO
OPMT00000KT4000mPartly Cloudy37oC1001hp19%Multan
OPME00000KT8000mClear20oC41%Murree
OPMF00000KT8000mClear28oC30%MUZAFFARABAD
OPNPT00000KT7000mClear38oC22%NOOR PUR THAL
OPOK00000KT6000mClear35oC1001hp37%Okara
OPPG36006KT6000mClear33oC1010hp26%Panjgur
OPRT00000KT6000mClear15oC1019hp62%Rawalakot
OPRK00000KT4000mDust Haze35oC1002hp24%R-Y-KHAN
OPSW00000KT4000mHaze33oC1000hp37%Sahiwal
OPNH09004KT4000mHaze35oC1001hp37%Sh Benazirabad
OPST27006KT4000mHaze32oC1002hp19%SIAL A/P SIALKOT
OPSK00000KT4000mHaze35oC1000hpSukkur
OPTS00000KT4000mHaze33oC45%T.T. SINGH